Time;durP1;ratioP1;P1;durP2;ratioP2;P2;SDS_P1;SDS_P2;PMS_P1;PMS_P2;Temp;Humidity;BMP_temperature;BMP_pressure;BME280_temperature;BME280_humidity;BME280_pressure;Samples;Min_cycle;Max_cycle;Signal;HPM_P1;HPM_P2
2023/09/25 00:13:56;;;;;;;16.05;6.88;;;;;;;23.84;44.45;100954.31;31510915;28;20148;-75
2023/09/25 00:28:58;;;;;;;14.67;6.50;;;;;;;23.55;45.27;100960.03;31483222;28;20056;-76
2023/09/25 00:44:01;;;;;;;13.80;6.43;;;;;;;23.38;45.86;100963.38;31478320;28;20048;-77
2023/09/25 00:59:03;;;;;;;18.90;6.55;;;;;;;23.27;45.76;100977.06;31486658;28;20048;-77
2023/09/25 01:14:06;;;;;;;10.70;5.18;;;;;;;23.08;46.22;100981.38;31484948;28;20049;-78
2023/09/25 01:29:10;;;;;;;16.50;5.80;;;;;;;23.00;46.65;100985.78;31478501;28;20059;-77
2023/09/25 01:44:12;;;;;;;12.52;6.05;;;;;;;22.89;46.70;100982.88;31471685;28;20055;-75
2023/09/25 01:59:14;;;;;;;12.32;6.13;;;;;;;22.73;47.15;100984.88;31477559;28;20087;-78
2023/09/25 02:14:16;;;;;;;14.98;7.47;;;;;;;22.69;47.13;101005.69;31482602;28;20470;-77
2023/09/25 02:29:20;;;;;;;12.65;5.95;;;;;;;22.56;47.09;101019.84;31480953;28;20048;-77
2023/09/25 02:44:22;;;;;;;19.60;6.53;;;;;;;22.45;47.66;101025.19;31479138;28;20085;-76
2023/09/25 02:59:24;;;;;;;13.90;7.10;;;;;;;22.32;47.71;101024.72;31480645;28;20052;-76
2023/09/25 03:14:27;;;;;;;18.45;6.57;;;;;;;22.25;48.27;101044.47;31518980;28;20072;-76
2023/09/25 03:29:29;;;;;;;16.40;7.03;;;;;;;22.11;48.52;101041.22;31493047;28;20057;-75
2023/09/25 03:44:31;;;;;;;19.35;7.40;;;;;;;22.14;48.78;101056.09;31501759;28;20056;-77
2023/09/25 03:59:33;;;;;;;19.58;8.45;;;;;;;22.10;48.86;101050.75;31510471;28;20040;-77
2023/09/25 04:14:41;;;;;;;22.00;8.65;;;;;;;22.35;48.73;101060.50;31518137;28;20489;-76
2023/09/25 04:29:44;;;;;;;19.20;9.13;;;;;;;22.93;47.71;101063.69;31496651;28;20064;-78
2023/09/25 04:44:47;;;;;;;16.33;8.23;;;;;;;23.26;48.50;101075.25;31485744;28;20091;-77
2023/09/25 04:59:49;;;;;;;33.60;10.60;;;;;;;23.87;48.83;101088.38;31483731;28;20056;-79
2023/09/25 05:14:53;;;;;;;62.22;11.20;;;;;;;24.20;48.71;101099.09;31514936;28;20056;-78
2023/09/25 05:29:57;;;;;;;24.23;8.23;;;;;;;25.07;48.42;101096.84;31466664;28;20061;-76
2023/09/25 05:45:00;;;;;;;26.20;9.77;;;;;;;26.48;46.12;101105.25;31482275;28;20056;-79
2023/09/25 06:00:10;;;;;;;21.50;8.77;;;;;;;27.94;43.99;101117.69;31486172;28;20044;-77
2023/09/25 06:15:13;;;;;;;30.52;12.55;;;;;;;28.97;42.12;101117.25;31492338;28;20053;-77
2023/09/25 06:30:16;;;;;;;19.77;8.57;;;;;;;29.92;40.67;101128.16;31471449;28;20053;-77
2023/09/25 06:45:21;;;;;;;21.02;7.63;;;;;;;30.72;39.44;101138.44;31480259;28;20751;-79
2023/09/25 07:00:26;;;;;;;16.42;6.68;;;;;;;31.96;38.17;101129.25;31483103;28;20409;-75
2023/09/25 07:15:34;;;;;;;20.08;7.55;;;;;;;33.39;34.56;101136.75;31491235;28;20131;-77
2023/09/25 07:30:42;;;;;;;15.60;7.45;;;;;;;34.34;32.09;101124.75;31480303;28;20415;-79
2023/09/25 07:45:48;;;;;;;8.65;4.18;;;;;;;35.35;30.83;101127.75;31480896;28;20055;-78
2023/09/25 08:00:51;;;;;;;6.55;3.40;;;;;;;35.68;29.51;101122.91;31498662;28;20052;-77
2023/09/25 08:15:54;;;;;;;11.25;4.00;;;;;;;36.22;28.67;101112.84;31495467;28;20060;-71
2023/09/25 08:30:56;;;;;;;5.93;3.42;;;;;;;36.51;28.03;101113.25;31495691;28;20063;-79
2023/09/25 08:45:58;;;;;;;10.23;3.42;;;;;;;36.65;28.49;101122.16;31519107;28;20340;-82
2023/09/25 09:01:01;;;;;;;5.57;2.72;;;;;;;35.95;28.06;101111.91;31479493;28;20052;-72
2023/09/25 09:16:12;;;;;;;8.30;3.47;;;;;;;37.01;27.69;101093.41;31492552;28;20044;-77
2023/09/25 09:31:17;;;;;;;9.95;2.38;;;;;;;36.79;26.12;101087.38;31489318;28;20148;-77
2023/09/25 09:46:25;;;;;;;3.70;1.70;;;;;;;37.18;25.93;101084.91;31483320;28;20048;-74
2023/09/25 10:01:27;;;;;;;5.00;2.00;;;;;;;36.33;27.26;101074.94;31480372;28;20051;-75
2023/09/25 10:16:48;;;;;;;10.38;2.03;;;;;;;36.92;26.35;101062.91;31489447;28;20052;-75
2023/09/25 10:31:50;;;;;;;13.15;2.70;;;;;;;37.00;25.99;101066.44;31471902;28;20505;-75
2023/09/25 10:46:52;;;;;;;4.40;2.38;;;;;;;37.04;25.83;101041.28;31463002;28;20072;-74
2023/09/25 11:01:54;;;;;;;23.58;9.57;;;;;;;37.64;25.49;101033.38;31461863;28;20060;-73
2023/09/25 11:16:57;;;;;;;8.30;4.10;;;;;;;37.10;25.06;101036.13;31471529;28;20047;-73
2023/09/25 11:31:59;;;;;;;4.90;2.75;;;;;;;38.51;24.72;101020.31;31496742;28;20053;-79
2023/09/25 11:47:06;;;;;;;5.45;2.30;;;;;;;38.59;23.54;101020.97;31492551;28;20049;-74
2023/09/25 12:02:11;;;;;;;10.60;2.60;;;;;;;36.35;25.03;101021.41;31484908;28;20044;-73
2023/09/25 12:17:33;;;;;;;20.23;7.28;;;;;;;34.05;26.33;101014.97;31665990;27;20900;-72
2023/09/25 12:32:36;;;;;;;6.72;2.88;;;;;;;33.02;27.00;101024.75;31586340;28;20052;-75
2023/09/25 12:47:39;;;;;;;5.55;2.40;;;;;;;32.69;27.17;101021.50;31575480;28;20070;-73
2023/09/25 13:02:41;;;;;;;5.55;2.45;;;;;;;32.37;27.73;101030.25;31531617;28;20122;-74
2023/09/25 13:17:53;;;;;;;;;;;;;;;;;;;;;
2023/09/25 13:32:58;;;;;;;6.32;2.20;;;;;;;32.10;28.21;101026.81;31475129;28;20079;-78
2023/09/25 13:48:00;;;;;;;9.95;2.85;;;;;;;31.90;27.65;101032.38;31490524;28;20044;-78
2023/09/25 14:03:03;;;;;;;8.32;3.95;;;;;;;31.75;27.81;101022.53;31453695;28;20061;-76
2023/09/25 14:18:08;;;;;;;6.03;3.13;;;;;;;31.65;28.08;101040.34;31468086;28;20056;-76
2023/09/25 14:33:13;;;;;;;5.05;2.28;;;;;;;31.33;28.54;101041.28;31454202;28;20060;-76
2023/09/25 14:48:16;;;;;;;6.32;2.33;;;;;;;31.25;28.76;101054.44;31476825;28;20416;-78
2023/09/25 15:03:21;;;;;;;9.20;2.40;;;;;;;30.91;28.92;101053.56;31487441;28;20088;-78
2023/09/25 15:18:23;;;;;;;10.48;3.42;;;;;;;30.66;29.21;101067.00;31459299;28;20044;-73
2023/09/25 15:33:25;;;;;;;11.30;2.58;;;;;;;30.26;29.30;101077.28;31435533;28;20092;-77
2023/09/25 15:48:34;;;;;;;24.67;9.52;;;;;;;29.89;29.62;101080.88;31460216;28;20423;-76
2023/09/25 16:03:37;;;;;;;15.35;4.28;;;;;;;29.53;29.87;101081.81;31442134;28;20459;-78
2023/09/25 16:18:39;;;;;;;11.60;4.13;;;;;;;29.27;29.91;101104.00;31420761;28;20508;-77
2023/09/25 16:33:45;;;;;;;9.60;3.55;;;;;;;28.90;30.46;101096.22;31443763;28;20471;-76
2023/09/25 16:48:47;;;;;;;20.48;6.70;;;;;;;28.63;30.32;101111.91;31468948;28;20052;-76
2023/09/25 17:03:49;;;;;;;51.45;20.88;;;;;;;28.42;30.59;101119.19;31469925;28;20156;-75
2023/09/25 17:18:52;;;;;;;23.60;8.15;;;;;;;28.26;30.84;101134.03;31483474;28;20052;-74
2023/09/25 17:33:56;;;;;;;25.40;9.25;;;;;;;28.03;30.70;101148.09;31483477;28;20064;-79
2023/09/25 17:49:20;;;;;;;26.47;8.77;;;;;;;27.93;31.24;101152.44;31507537;28;20266;-80
2023/09/25 18:04:25;;;;;;;15.48;6.85;;;;;;;27.70;31.80;101162.94;31485468;28;20060;-79
2023/09/25 18:19:27;;;;;;;11.67;5.00;;;;;;;27.35;32.31;101171.88;31501282;28;20044;-79
2023/09/25 18:34:29;;;;;;;16.73;8.10;;;;;;;27.14;32.86;101174.19;31463542;28;20053;-79
2023/09/25 18:49:31;;;;;;;29.83;10.63;;;;;;;27.05;33.10;101176.47;31488209;28;20048;-79
2023/09/25 19:04:34;;;;;;;26.83;10.37;;;;;;;26.97;33.55;101176.22;31463777;28;20065;-79
2023/09/25 19:19:37;;;;;;;45.97;15.37;;;;;;;26.92;33.69;101174.19;31463768;28;20635;-79
2023/09/25 19:34:39;;;;;;;57.45;18.30;;;;;;;26.80;34.04;101176.19;31452605;28;20056;-79
2023/09/25 19:49:42;;;;;;;50.83;17.87;;;;;;;26.75;34.51;101182.50;31443546;28;20868;-82
2023/09/25 20:04:44;;;;;;;55.27;19.70;;;;;;;26.49;35.00;101181.97;31455433;28;20052;-82
2023/09/25 20:19:46;;;;;;;55.83;20.33;;;;;;;26.23;35.44;101184.91;31433987;28;20404;-81
2023/09/25 20:34:56;;;;;;;71.70;26.00;;;;;;;25.99;35.96;101185.31;31497930;28;20048;-80
2023/09/25 20:49:58;;;;;;;26.13;9.65;;;;;;;25.59;37.09;101185.59;31463487;28;20087;-76
2023/09/25 21:05:40;;;;;;;38.53;14.47;;;;;;;25.37;38.55;101183.44;31485588;28;20052;-84
2023/09/25 21:20:56;;;;;;;22.48;9.95;;;;;;;25.58;37.57;101172.94;31351232;28;20049;-84
2023/09/25 21:35:58;;;;;;;21.25;8.73;;;;;;;25.46;37.84;101170.13;31475497;28;20048;-75
2023/09/25 21:51:00;;;;;;;17.17;8.23;;;;;;;25.42;37.43;101166.81;31462419;28;20049;-76
2023/09/25 22:06:02;;;;;;;32.40;11.50;;;;;;;25.28;37.95;101173.28;31464026;28;20072;-73
2023/09/25 22:21:06;;;;;;;28.65;10.38;;;;;;;25.16;37.92;101163.34;31471270;28;20045;-76
2023/09/25 22:36:09;;;;;;;27.52;10.45;;;;;;;25.05;38.15;101172.34;31459502;28;20059;-76
2023/09/25 22:51:17;;;;;;;19.45;8.38;;;;;;;24.92;38.43;101168.44;31451661;28;20144;-74
2023/09/25 23:06:19;;;;;;;18.23;8.07;;;;;;;24.85;38.18;101160.53;31444821;28;20056;-75
2023/09/25 23:21:21;;;;;;;11.75;6.10;;;;;;;24.66;38.35;101163.66;31458286;28;20041;-74
2023/09/25 23:36:23;;;;;;;13.73;5.95;;;;;;;24.52;38.65;101153.44;31450675;28;20112;-75
2023/09/25 23:51:25;;;;;;;13.48;7.20;;;;;;;24.36;39.06;101145.69;31455051;28;20079;-74
